sensor_id;sensor_type;location;lat;lon;timestamp;P1;durP1;ratioP1;P2;durP2;ratioP2
54416;SDS011;40326;51.220;7.250;2022-10-16T00:03:39;3.63;;;1.58;;
54416;SDS011;40326;51.220;7.250;2022-10-16T00:06:05;4.78;;;2.05;;
54416;SDS011;40326;51.220;7.250;2022-10-16T00:08:32;6.68;;;2.20;;
54416;SDS011;40326;51.220;7.250;2022-10-16T00:11:02;3.67;;;1.95;;
54416;SDS011;40326;51.220;7.250;2022-10-16T00:13:40;3.78;;;2.30;;
54416;SDS011;40326;51.220;7.250;2022-10-16T00:16:08;3.55;;;2.00;;
54416;SDS011;40326;51.220;7.250;2022-10-16T00:18:35;4.70;;;1.90;;
54416;SDS011;40326;51.220;7.250;2022-10-16T00:21:04;5.43;;;2.10;;
54416;SDS011;40326;51.220;7.250;2022-10-16T00:23:37;4.50;;;2.08;;
54416;SDS011;40326;51.220;7.250;2022-10-16T00:26:04;4.85;;;2.15;;
54416;SDS011;40326;51.220;7.250;2022-10-16T00:28:32;4.78;;;2.15;;
54416;SDS011;40326;51.220;7.250;2022-10-16T00:30:58;6.55;;;1.92;;
54416;SDS011;40326;51.220;7.250;2022-10-16T00:33:24;3.03;;;1.80;;
54416;SDS011;40326;51.220;7.250;2022-10-16T00:35:49;3.30;;;1.80;;
54416;SDS011;40326;51.220;7.250;2022-10-16T00:38:15;3.60;;;1.92;;
54416;SDS011;40326;51.220;7.250;2022-10-16T00:40:40;4.45;;;1.90;;
54416;SDS011;40326;51.220;7.250;2022-10-16T00:43:12;2.75;;;1.67;;
54416;SDS011;40326;51.220;7.250;2022-10-16T00:45:39;3.57;;;1.90;;
54416;SDS011;40326;51.220;7.250;2022-10-16T00:48:06;4.63;;;1.83;;
54416;SDS011;40326;51.220;7.250;2022-10-16T00:50:37;4.35;;;1.90;;
54416;SDS011;40326;51.220;7.250;2022-10-16T00:53:03;3.33;;;1.80;;
54416;SDS011;40326;51.220;7.250;2022-10-16T00:55:29;4.65;;;2.03;;
54416;SDS011;40326;51.220;7.250;2022-10-16T00:57:55;3.30;;;1.85;;
54416;SDS011;40326;51.220;7.250;2022-10-16T01:00:23;4.63;;;2.28;;
54416;SDS011;40326;51.220;7.250;2022-10-16T01:02:54;4.80;;;2.20;;
54416;SDS011;40326;51.220;7.250;2022-10-16T01:05:30;5.40;;;2.30;;
54416;SDS011;40326;51.220;7.250;2022-10-16T01:08:09;4.65;;;2.67;;
54416;SDS011;40326;51.220;7.250;2022-10-16T01:10:57;3.42;;;2.00;;
54416;SDS011;40326;51.220;7.250;2022-10-16T01:13:33;4.05;;;2.20;;
54416;SDS011;40326;51.220;7.250;2022-10-16T01:16:05;4.22;;;2.40;;
54416;SDS011;40326;51.220;7.250;2022-10-16T01:18:39;3.42;;;2.13;;
54416;SDS011;40326;51.220;7.250;2022-10-16T01:29:20;4.15;;;2.40;;
54416;SDS011;40326;51.220;7.250;2022-10-16T01:31:55;5.25;;;2.15;;
54416;SDS011;40326;51.220;7.250;2022-10-16T01:34:46;4.90;;;2.30;;
54416;SDS011;40326;51.220;7.250;2022-10-16T01:37:15;4.65;;;2.20;;
54416;SDS011;40326;51.220;7.250;2022-10-16T01:39:47;5.00;;;2.63;;
54416;SDS011;40326;51.220;7.250;2022-10-16T01:42:20;6.53;;;2.38;;
54416;SDS011;40326;51.220;7.250;2022-10-16T01:44:49;4.47;;;2.40;;
54416;SDS011;40326;51.220;7.250;2022-10-16T01:47:17;4.72;;;2.65;;
54416;SDS011;40326;51.220;7.250;2022-10-16T01:49:46;3.92;;;2.50;;
54416;SDS011;40326;51.220;7.250;2022-10-16T01:52:17;4.00;;;2.33;;
54416;SDS011;40326;51.220;7.250;2022-10-16T01:54:47;4.85;;;2.33;;
54416;SDS011;40326;51.220;7.250;2022-10-16T01:57:16;6.35;;;2.53;;
54416;SDS011;40326;51.220;7.250;2022-10-16T01:59:45;4.18;;;2.33;;
54416;SDS011;40326;51.220;7.250;2022-10-16T02:02:15;5.50;;;2.85;;
54416;SDS011;40326;51.220;7.250;2022-10-16T02:04:44;5.25;;;2.80;;
54416;SDS011;40326;51.220;7.250;2022-10-16T02:07:13;4.85;;;2.60;;
54416;SDS011;40326;51.220;7.250;2022-10-16T02:09:39;6.80;;;2.33;;
54416;SDS011;40326;51.220;7.250;2022-10-16T02:12:10;3.70;;;2.40;;
54416;SDS011;40326;51.220;7.250;2022-10-16T02:14:40;4.03;;;2.35;;
54416;SDS011;40326;51.220;7.250;2022-10-16T02:17:14;4.85;;;2.40;;
54416;SDS011;40326;51.220;7.250;2022-10-16T02:19:41;4.43;;;2.20;;
54416;SDS011;40326;51.220;7.250;2022-10-16T02:22:08;6.53;;;2.35;;
54416;SDS011;40326;51.220;7.250;2022-10-16T02:24:58;4.07;;;2.30;;
54416;SDS011;40326;51.220;7.250;2022-10-16T02:30:33;4.53;;;2.78;;
54416;SDS011;40326;51.220;7.250;2022-10-16T02:33:05;3.83;;;2.60;;
54416;SDS011;40326;51.220;7.250;2022-10-16T02:35:34;5.97;;;2.50;;
54416;SDS011;40326;51.220;7.250;2022-10-16T02:38:00;5.47;;;2.95;;
54416;SDS011;40326;51.220;7.250;2022-10-16T02:40:26;3.88;;;2.28;;
54416;SDS011;40326;51.220;7.250;2022-10-16T02:42:52;4.90;;;2.70;;
54416;SDS011;40326;51.220;7.250;2022-10-16T02:45:19;6.65;;;2.50;;
54416;SDS011;40326;51.220;7.250;2022-10-16T02:47:46;4.10;;;2.50;;
54416;SDS011;40326;51.220;7.250;2022-10-16T02:50:11;4.32;;;2.28;;
54416;SDS011;40326;51.220;7.250;2022-10-16T02:52:37;4.65;;;2.30;;
54416;SDS011;40326;51.220;7.250;2022-10-16T02:55:02;3.05;;;1.90;;
54416;SDS011;40326;51.220;7.250;2022-10-16T02:57:28;3.22;;;2.15;;
54416;SDS011;40326;51.220;7.250;2022-10-16T02:59:53;5.72;;;2.53;;
54416;SDS011;40326;51.220;7.250;2022-10-16T03:02:18;4.30;;;2.25;;
54416;SDS011;40326;51.220;7.250;2022-10-16T03:04:44;6.15;;;2.20;;
54416;SDS011;40326;51.220;7.250;2022-10-16T03:07:10;3.83;;;2.20;;
54416;SDS011;40326;51.220;7.250;2022-10-16T03:09:35;3.05;;;1.98;;
54416;SDS011;40326;51.220;7.250;2022-10-16T03:12:00;4.68;;;2.22;;
54416;SDS011;40326;51.220;7.250;2022-10-16T03:14:26;5.93;;;1.95;;
54416;SDS011;40326;51.220;7.250;2022-10-16T03:16:51;4.22;;;2.20;;
54416;SDS011;40326;51.220;7.250;2022-10-16T03:19:17;4.25;;;1.95;;
54416;SDS011;40326;51.220;7.250;2022-10-16T03:21:42;3.05;;;1.80;;
54416;SDS011;40326;51.220;7.250;2022-10-16T03:24:08;4.43;;;2.40;;
54416;SDS011;40326;51.220;7.250;2022-10-16T03:26:34;3.10;;;1.67;;
54416;SDS011;40326;51.220;7.250;2022-10-16T03:28:59;4.15;;;1.75;;
54416;SDS011;40326;51.220;7.250;2022-10-16T03:31:24;3.75;;;1.70;;
54416;SDS011;40326;51.220;7.250;2022-10-16T03:33:50;3.45;;;1.80;;
54416;SDS011;40326;51.220;7.250;2022-10-16T03:36:15;3.65;;;1.80;;
54416;SDS011;40326;51.220;7.250;2022-10-16T03:38:40;3.33;;;1.80;;
54416;SDS011;40326;51.220;7.250;2022-10-16T03:41:06;3.28;;;1.63;;
54416;SDS011;40326;51.220;7.250;2022-10-16T03:43:32;5.05;;;1.80;;
54416;SDS011;40326;51.220;7.250;2022-10-16T03:45:58;3.42;;;1.35;;
54416;SDS011;40326;51.220;7.250;2022-10-16T03:48:26;2.33;;;1.40;;
54416;SDS011;40326;51.220;7.250;2022-10-16T03:50:51;2.33;;;1.50;;
54416;SDS011;40326;51.220;7.250;2022-10-16T03:53:16;2.08;;;1.20;;
54416;SDS011;40326;51.220;7.250;2022-10-16T03:55:42;3.58;;;1.40;;
54416;SDS011;40326;51.220;7.250;2022-10-16T03:58:08;2.22;;;1.35;;
54416;SDS011;40326;51.220;7.250;2022-10-16T04:00:33;3.60;;;1.38;;
54416;SDS011;40326;51.220;7.250;2022-10-16T04:02:59;3.47;;;1.33;;
54416;SDS011;40326;51.220;7.250;2022-10-16T04:05:25;2.25;;;1.20;;
54416;SDS011;40326;51.220;7.250;2022-10-16T04:07:53;1.88;;;1.25;;
54416;SDS011;40326;51.220;7.250;2022-10-16T04:10:18;2.55;;;1.25;;
54416;SDS011;40326;51.220;7.250;2022-10-16T04:12:44;2.65;;;1.45;;
54416;SDS011;40326;51.220;7.250;2022-10-16T04:15:09;2.95;;;1.40;;
54416;SDS011;40326;51.220;7.250;2022-10-16T04:17:35;3.03;;;1.60;;
54416;SDS011;40326;51.220;7.250;2022-10-16T04:20:01;3.42;;;1.70;;
54416;SDS011;40326;51.220;7.250;2022-10-16T04:22:26;2.38;;;1.52;;
54416;SDS011;40326;51.220;7.250;2022-10-16T04:24:51;4.78;;;1.40;;
54416;SDS011;40326;51.220;7.250;2022-10-16T04:27:17;3.05;;;1.50;;
54416;SDS011;40326;51.220;7.250;2022-10-16T04:29:42;2.78;;;1.63;;
54416;SDS011;40326;51.220;7.250;2022-10-16T04:32:08;2.92;;;1.50;;
54416;SDS011;40326;51.220;7.250;2022-10-16T04:34:34;3.78;;;1.60;;
54416;SDS011;40326;51.220;7.250;2022-10-16T04:36:59;2.60;;;1.55;;
54416;SDS011;40326;51.220;7.250;2022-10-16T04:39:25;3.75;;;1.70;;
54416;SDS011;40326;51.220;7.250;2022-10-16T04:41:50;2.35;;;1.42;;
54416;SDS011;40326;51.220;7.250;2022-10-16T04:44:15;3.22;;;1.60;;
54416;SDS011;40326;51.220;7.250;2022-10-16T04:46:41;2.70;;;1.42;;
54416;SDS011;40326;51.220;7.250;2022-10-16T04:49:06;3.88;;;1.77;;
54416;SDS011;40326;51.220;7.250;2022-10-16T04:51:31;3.30;;;1.80;;
54416;SDS011;40326;51.220;7.250;2022-10-16T04:53:57;2.85;;;1.50;;
54416;SDS011;40326;51.220;7.250;2022-10-16T04:56:22;3.72;;;1.58;;
54416;SDS011;40326;51.220;7.250;2022-10-16T04:58:48;4.20;;;1.70;;
54416;SDS011;40326;51.220;7.250;2022-10-16T05:01:13;3.05;;;1.60;;
54416;SDS011;40326;51.220;7.250;2022-10-16T05:03:39;4.65;;;1.65;;
54416;SDS011;40326;51.220;7.250;2022-10-16T05:06:05;3.30;;;1.90;;
54416;SDS011;40326;51.220;7.250;2022-10-16T05:08:30;4.53;;;1.80;;
54416;SDS011;40326;51.220;7.250;2022-10-16T05:10:56;2.92;;;1.70;;
54416;SDS011;40326;51.220;7.250;2022-10-16T05:13:21;4.20;;;1.90;;
54416;SDS011;40326;51.220;7.250;2022-10-16T05:15:48;3.55;;;1.98;;
54416;SDS011;40326;51.220;7.250;2022-10-16T05:18:14;3.00;;;1.95;;
54416;SDS011;40326;51.220;7.250;2022-10-16T05:20:39;5.80;;;2.00;;
54416;SDS011;40326;51.220;7.250;2022-10-16T05:23:05;3.95;;;1.80;;
54416;SDS011;40326;51.220;7.250;2022-10-16T05:25:31;3.67;;;2.00;;
54416;SDS011;40326;51.220;7.250;2022-10-16T05:27:56;6.28;;;2.38;;
54416;SDS011;40326;51.220;7.250;2022-10-16T05:30:21;4.25;;;2.05;;
54416;SDS011;40326;51.220;7.250;2022-10-16T05:32:47;5.10;;;2.00;;
54416;SDS011;40326;51.220;7.250;2022-10-16T05:35:14;3.30;;;2.08;;
54416;SDS011;40326;51.220;7.250;2022-10-16T05:37:40;3.83;;;2.10;;
54416;SDS011;40326;51.220;7.250;2022-10-16T05:40:05;4.80;;;2.35;;
54416;SDS011;40326;51.220;7.250;2022-10-16T05:42:31;5.70;;;2.17;;
54416;SDS011;40326;51.220;7.250;2022-10-16T05:44:56;6.32;;;2.17;;
54416;SDS011;40326;51.220;7.250;2022-10-16T05:47:22;4.22;;;1.77;;
54416;SDS011;40326;51.220;7.250;2022-10-16T05:49:47;5.97;;;5.38;;
54416;SDS011;40326;51.220;7.250;2022-10-16T05:52:12;4.22;;;2.60;;
54416;SDS011;40326;51.220;7.250;2022-10-16T05:54:38;6.43;;;2.17;;
54416;SDS011;40326;51.220;7.250;2022-10-16T05:57:03;6.03;;;2.67;;
54416;SDS011;40326;51.220;7.250;2022-10-16T05:59:30;3.15;;;2.05;;
54416;SDS011;40326;51.220;7.250;2022-10-16T06:01:55;5.53;;;2.40;;
54416;SDS011;40326;51.220;7.250;2022-10-16T06:04:21;4.15;;;2.60;;
54416;SDS011;40326;51.220;7.250;2022-10-16T06:06:46;4.82;;;2.67;;
54416;SDS011;40326;51.220;7.250;2022-10-16T06:09:11;7.38;;;2.55;;
54416;SDS011;40326;51.220;7.250;2022-10-16T06:11:37;3.90;;;2.60;;
54416;SDS011;40326;51.220;7.250;2022-10-16T06:14:02;3.58;;;2.30;;
54416;SDS011;40326;51.220;7.250;2022-10-16T06:16:31;4.80;;;2.55;;
54416;SDS011;40326;51.220;7.250;2022-10-16T06:19:00;4.35;;;2.40;;
54416;SDS011;40326;51.220;7.250;2022-10-16T06:21:26;3.88;;;2.40;;
54416;SDS011;40326;51.220;7.250;2022-10-16T06:23:53;4.18;;;1.90;;
54416;SDS011;40326;51.220;7.250;2022-10-16T06:26:20;4.10;;;2.30;;
54416;SDS011;40326;51.220;7.250;2022-10-16T06:28:47;3.58;;;1.90;;
54416;SDS011;40326;51.220;7.250;2022-10-16T06:31:14;3.45;;;2.13;;
54416;SDS011;40326;51.220;7.250;2022-10-16T06:33:40;3.72;;;2.22;;
54416;SDS011;40326;51.220;7.250;2022-10-16T06:38:33;5.13;;;2.13;;
54416;SDS011;40326;51.220;7.250;2022-10-16T06:40:59;5.82;;;2.13;;
54416;SDS011;40326;51.220;7.250;2022-10-16T06:43:25;4.47;;;2.00;;
54416;SDS011;40326;51.220;7.250;2022-10-16T06:45:56;5.13;;;2.00;;
54416;SDS011;40326;51.220;7.250;2022-10-16T06:48:22;3.13;;;1.98;;
54416;SDS011;40326;51.220;7.250;2022-10-16T06:50:54;3.40;;;1.95;;
54416;SDS011;40326;51.220;7.250;2022-10-16T06:53:28;3.47;;;2.00;;
54416;SDS011;40326;51.220;7.250;2022-10-16T06:55:55;4.15;;;1.85;;
54416;SDS011;40326;51.220;7.250;2022-10-16T06:58:21;3.67;;;1.80;;
54416;SDS011;40326;51.220;7.250;2022-10-16T07:00:47;6.38;;;1.70;;
54416;SDS011;40326;51.220;7.250;2022-10-16T07:03:12;5.00;;;1.90;;
54416;SDS011;40326;51.220;7.250;2022-10-16T07:05:39;2.63;;;1.55;;
54416;SDS011;40326;51.220;7.250;2022-10-16T07:08:06;3.25;;;1.58;;
54416;SDS011;40326;51.220;7.250;2022-10-16T07:10:31;4.57;;;2.00;;
54416;SDS011;40326;51.220;7.250;2022-10-16T07:12:57;4.20;;;1.80;;
54416;SDS011;40326;51.220;7.250;2022-10-16T07:15:24;3.05;;;1.80;;
54416;SDS011;40326;51.220;7.250;2022-10-16T07:17:49;2.28;;;1.50;;
54416;SDS011;40326;51.220;7.250;2022-10-16T07:20:15;2.95;;;1.75;;
54416;SDS011;40326;51.220;7.250;2022-10-16T07:22:40;2.50;;;1.48;;
54416;SDS011;40326;51.220;7.250;2022-10-16T07:25:05;3.15;;;1.63;;
54416;SDS011;40326;51.220;7.250;2022-10-16T07:27:31;2.92;;;1.52;;
54416;SDS011;40326;51.220;7.250;2022-10-16T07:29:56;3.25;;;1.50;;
54416;SDS011;40326;51.220;7.250;2022-10-16T07:32:22;5.43;;;1.80;;
54416;SDS011;40326;51.220;7.250;2022-10-16T07:34:47;2.67;;;1.40;;
54416;SDS011;40326;51.220;7.250;2022-10-16T07:37:12;2.50;;;1.60;;
54416;SDS011;40326;51.220;7.250;2022-10-16T07:39:38;3.40;;;1.50;;
54416;SDS011;40326;51.220;7.250;2022-10-16T07:42:03;4.45;;;1.60;;
54416;SDS011;40326;51.220;7.250;2022-10-16T07:44:28;2.38;;;1.60;;
54416;SDS011;40326;51.220;7.250;2022-10-16T07:46:53;3.03;;;1.48;;
54416;SDS011;40326;51.220;7.250;2022-10-16T07:49:19;3.17;;;1.80;;
54416;SDS011;40326;51.220;7.250;2022-10-16T07:51:45;2.97;;;1.63;;
54416;SDS011;40326;51.220;7.250;2022-10-16T07:54:10;6.20;;;1.75;;
54416;SDS011;40326;51.220;7.250;2022-10-16T07:56:36;2.85;;;1.70;;
54416;SDS011;40326;51.220;7.250;2022-10-16T07:59:01;3.45;;;1.85;;
54416;SDS011;40326;51.220;7.250;2022-10-16T08:01:26;4.03;;;1.85;;
54416;SDS011;40326;51.220;7.250;2022-10-16T08:03:52;2.78;;;1.73;;
54416;SDS011;40326;51.220;7.250;2022-10-16T08:06:18;3.45;;;1.83;;
54416;SDS011;40326;51.220;7.250;2022-10-16T08:08:45;3.67;;;1.70;;
54416;SDS011;40326;51.220;7.250;2022-10-16T08:11:10;4.05;;;1.88;;
54416;SDS011;40326;51.220;7.250;2022-10-16T08:13:36;4.50;;;1.65;;
54416;SDS011;40326;51.220;7.250;2022-10-16T08:16:01;2.88;;;1.60;;
54416;SDS011;40326;51.220;7.250;2022-10-16T08:18:28;2.60;;;1.42;;
54416;SDS011;40326;51.220;7.250;2022-10-16T08:20:57;3.60;;;1.80;;
54416;SDS011;40326;51.220;7.250;2022-10-16T08:23:25;3.20;;;1.75;;
54416;SDS011;40326;51.220;7.250;2022-10-16T08:25:51;2.45;;;1.27;;
54416;SDS011;40326;51.220;7.250;2022-10-16T08:28:18;2.60;;;1.30;;
54416;SDS011;40326;51.220;7.250;2022-10-16T08:30:43;3.30;;;1.75;;
54416;SDS011;40326;51.220;7.250;2022-10-16T08:33:09;2.65;;;1.10;;
54416;SDS011;40326;51.220;7.250;2022-10-16T08:35:34;3.25;;;1.17;;
54416;SDS011;40326;51.220;7.250;2022-10-16T08:37:59;3.05;;;1.33;;
54416;SDS011;40326;51.220;7.250;2022-10-16T08:40:26;2.95;;;1.17;;
54416;SDS011;40326;51.220;7.250;2022-10-16T08:45:42;2.70;;;1.20;;
54416;SDS011;40326;51.220;7.250;2022-10-16T08:51:03;2.38;;;1.25;;
54416;SDS011;40326;51.220;7.250;2022-10-16T08:53:52;2.72;;;1.20;;
54416;SDS011;40326;51.220;7.250;2022-10-16T08:56:20;4.30;;;1.40;;
54416;SDS011;40326;51.220;7.250;2022-10-16T08:58:46;3.35;;;1.33;;
54416;SDS011;40326;51.220;7.250;2022-10-16T09:01:14;2.90;;;1.15;;
54416;SDS011;40326;51.220;7.250;2022-10-16T09:03:51;3.50;;;1.25;;
54416;SDS011;40326;51.220;7.250;2022-10-16T09:13:02;3.25;;;1.08;;
54416;SDS011;40326;51.220;7.250;2022-10-16T09:18:01;3.55;;;1.20;;
54416;SDS011;40326;51.220;7.250;2022-10-16T09:20:50;3.80;;;1.20;;
54416;SDS011;40326;51.220;7.250;2022-10-16T09:23:28;2.03;;;1.00;;
54416;SDS011;40326;51.220;7.250;2022-10-16T09:25:56;4.18;;;1.10;;
54416;SDS011;40326;51.220;7.250;2022-10-16T09:28:23;4.28;;;1.10;;
54416;SDS011;40326;51.220;7.250;2022-10-16T09:30:49;2.53;;;1.08;;
54416;SDS011;40326;51.220;7.250;2022-10-16T09:33:15;2.38;;;1.02;;
54416;SDS011;40326;51.220;7.250;2022-10-16T09:35:45;4.43;;;1.83;;
54416;SDS011;40326;51.220;7.250;2022-10-16T09:38:28;2.80;;;1.17;;
54416;SDS011;40326;51.220;7.250;2022-10-16T09:40:55;4.35;;;1.20;;
54416;SDS011;40326;51.220;7.250;2022-10-16T09:46:04;2.30;;;0.90;;
54416;SDS011;40326;51.220;7.250;2022-10-16T09:48:39;3.63;;;0.90;;
54416;SDS011;40326;51.220;7.250;2022-10-16T09:56:24;1.73;;;0.90;;
54416;SDS011;40326;51.220;7.250;2022-10-16T09:58:52;2.22;;;1.00;;
54416;SDS011;40326;51.220;7.250;2022-10-16T10:01:19;1.67;;;0.90;;
54416;SDS011;40326;51.220;7.250;2022-10-16T10:03:47;3.42;;;1.00;;
54416;SDS011;40326;51.220;7.250;2022-10-16T10:06:24;3.67;;;1.17;;
54416;SDS011;40326;51.220;7.250;2022-10-16T10:08:52;2.70;;;0.90;;
54416;SDS011;40326;51.220;7.250;2022-10-16T10:11:35;1.88;;;0.90;;
54416;SDS011;40326;51.220;7.250;2022-10-16T10:14:17;2.67;;;0.90;;
54416;SDS011;40326;51.220;7.250;2022-10-16T10:19:29;1.73;;;0.70;;
54416;SDS011;40326;51.220;7.250;2022-10-16T10:22:10;4.47;;;0.80;;
54416;SDS011;40326;51.220;7.250;2022-10-16T10:24:42;2.65;;;0.80;;
54416;SDS011;40326;51.220;7.250;2022-10-16T10:27:10;2.20;;;0.80;;
54416;SDS011;40326;51.220;7.250;2022-10-16T10:37:23;2.15;;;0.80;;
54416;SDS011;40326;51.220;7.250;2022-10-16T10:39:56;3.30;;;1.23;;
54416;SDS011;40326;51.220;7.250;2022-10-16T10:42:34;2.95;;;0.90;;
54416;SDS011;40326;51.220;7.250;2022-10-16T10:45:21;4.60;;;1.77;;
54416;SDS011;40326;51.220;7.250;2022-10-16T10:51:04;1.55;;;0.60;;
54416;SDS011;40326;51.220;7.250;2022-10-16T10:53:37;2.03;;;0.90;;
54416;SDS011;40326;51.220;7.250;2022-10-16T10:56:22;2.50;;;0.90;;
54416;SDS011;40326;51.220;7.250;2022-10-16T11:07:10;2.67;;;0.80;;
54416;SDS011;40326;51.220;7.250;2022-10-16T11:09:49;2.55;;;0.80;;
54416;SDS011;40326;51.220;7.250;2022-10-16T11:12:20;2.33;;;1.17;;
54416;SDS011;40326;51.220;7.250;2022-10-16T11:20:54;1.70;;;0.70;;
54416;SDS011;40326;51.220;7.250;2022-10-16T11:23:31;3.70;;;0.80;;
54416;SDS011;40326;51.220;7.250;2022-10-16T11:26:30;3.60;;;1.00;;
54416;SDS011;40326;51.220;7.250;2022-10-16T11:28:59;3.17;;;1.00;;
54416;SDS011;40326;51.220;7.250;2022-10-16T11:31:36;2.40;;;0.95;;
54416;SDS011;40326;51.220;7.250;2022-10-16T11:39:31;2.17;;;0.93;;
54416;SDS011;40326;51.220;7.250;2022-10-16T11:49:55;3.33;;;0.70;;
54416;SDS011;40326;51.220;7.250;2022-10-16T11:52:33;5.60;;;0.98;;
54416;SDS011;40326;51.220;7.250;2022-10-16T11:57:33;2.05;;;0.77;;
54416;SDS011;40326;51.220;7.250;2022-10-16T12:00:17;3.38;;;0.82;;
54416;SDS011;40326;51.220;7.250;2022-10-16T12:08:36;4.35;;;0.90;;
54416;SDS011;40326;51.220;7.250;2022-10-16T12:11:09;1.45;;;0.60;;
54416;SDS011;40326;51.220;7.250;2022-10-16T12:19:19;1.52;;;0.75;;
54416;SDS011;40326;51.220;7.250;2022-10-16T12:21:45;1.80;;;0.70;;
54416;SDS011;40326;51.220;7.250;2022-10-16T12:24:29;2.28;;;0.80;;
54416;SDS011;40326;51.220;7.250;2022-10-16T12:27:01;3.30;;;0.85;;
54416;SDS011;40326;51.220;7.250;2022-10-16T12:29:41;2.10;;;0.70;;
54416;SDS011;40326;51.220;7.250;2022-10-16T12:32:31;2.47;;;0.80;;
54416;SDS011;40326;51.220;7.250;2022-10-16T12:34:59;2.60;;;1.20;;
54416;SDS011;40326;51.220;7.250;2022-10-16T12:37:27;2.03;;;0.90;;
54416;SDS011;40326;51.220;7.250;2022-10-16T12:39:58;2.63;;;0.82;;
54416;SDS011;40326;51.220;7.250;2022-10-16T12:42:35;2.22;;;0.70;;
54416;SDS011;40326;51.220;7.250;2022-10-16T12:45:01;2.80;;;0.80;;
54416;SDS011;40326;51.220;7.250;2022-10-16T12:47:46;3.47;;;0.80;;
54416;SDS011;40326;51.220;7.250;2022-10-16T12:52:50;1.75;;;0.70;;
54416;SDS011;40326;51.220;7.250;2022-10-16T12:55:16;2.90;;;0.93;;
54416;SDS011;40326;51.220;7.250;2022-10-16T13:00:49;3.05;;;0.80;;
54416;SDS011;40326;51.220;7.250;2022-10-16T13:06:28;1.52;;;0.60;;
54416;SDS011;40326;51.220;7.250;2022-10-16T13:14:41;2.50;;;0.77;;
54416;SDS011;40326;51.220;7.250;2022-10-16T13:19:53;2.10;;;0.55;;
54416;SDS011;40326;51.220;7.250;2022-10-16T13:23:20;1.77;;;0.55;;
54416;SDS011;40326;51.220;7.250;2022-10-16T13:28:32;1.58;;;0.70;;
54416;SDS011;40326;51.220;7.250;2022-10-16T13:31:00;1.95;;;0.80;;
54416;SDS011;40326;51.220;7.250;2022-10-16T13:35:59;2.67;;;0.60;;
54416;SDS011;40326;51.220;7.250;2022-10-16T13:38:35;2.50;;;0.70;;
54416;SDS011;40326;51.220;7.250;2022-10-16T13:41:05;1.70;;;0.73;;
54416;SDS011;40326;51.220;7.250;2022-10-16T13:43:42;3.17;;;0.90;;
54416;SDS011;40326;51.220;7.250;2022-10-16T13:46:17;2.55;;;0.80;;
54416;SDS011;40326;51.220;7.250;2022-10-16T13:48:59;2.90;;;0.70;;
54416;SDS011;40326;51.220;7.250;2022-10-16T13:51:26;1.23;;;0.77;;
54416;SDS011;40326;51.220;7.250;2022-10-16T13:53:52;1.13;;;0.63;;
54416;SDS011;40326;51.220;7.250;2022-10-16T13:56:21;2.42;;;0.65;;
54416;SDS011;40326;51.220;7.250;2022-10-16T13:59:01;2.53;;;0.63;;
54416;SDS011;40326;51.220;7.250;2022-10-16T14:01:29;2.72;;;0.70;;
54416;SDS011;40326;51.220;7.250;2022-10-16T14:04:03;2.53;;;0.80;;
54416;SDS011;40326;51.220;7.250;2022-10-16T14:06:30;1.25;;;0.70;;
54416;SDS011;40326;51.220;7.250;2022-10-16T14:11:33;2.83;;;0.70;;
54416;SDS011;40326;51.220;7.250;2022-10-16T14:14:01;2.83;;;0.85;;
54416;SDS011;40326;51.220;7.250;2022-10-16T14:16:29;1.33;;;0.65;;
54416;SDS011;40326;51.220;7.250;2022-10-16T14:19:03;2.80;;;0.70;;
54416;SDS011;40326;51.220;7.250;2022-10-16T14:21:31;1.65;;;0.75;;
54416;SDS011;40326;51.220;7.250;2022-10-16T14:23:57;1.25;;;0.50;;
54416;SDS011;40326;51.220;7.250;2022-10-16T14:26:25;1.60;;;0.80;;
54416;SDS011;40326;51.220;7.250;2022-10-16T14:29:10;1.42;;;0.52;;
54416;SDS011;40326;51.220;7.250;2022-10-16T14:31:40;3.17;;;0.70;;
54416;SDS011;40326;51.220;7.250;2022-10-16T14:34:28;1.33;;;0.70;;
54416;SDS011;40326;51.220;7.250;2022-10-16T14:36:55;2.03;;;0.70;;
54416;SDS011;40326;51.220;7.250;2022-10-16T14:39:21;2.45;;;0.82;;
54416;SDS011;40326;51.220;7.250;2022-10-16T14:41:49;1.63;;;0.95;;
54416;SDS011;40326;51.220;7.250;2022-10-16T14:44:19;2.20;;;0.70;;
54416;SDS011;40326;51.220;7.250;2022-10-16T14:46:53;1.60;;;0.63;;
54416;SDS011;40326;51.220;7.250;2022-10-16T14:49:19;2.55;;;0.80;;
54416;SDS011;40326;51.220;7.250;2022-10-16T14:51:46;1.38;;;0.68;;
54416;SDS011;40326;51.220;7.250;2022-10-16T14:54:13;1.42;;;1.17;;
54416;SDS011;40326;51.220;7.250;2022-10-16T14:59:36;2.03;;;0.82;;
54416;SDS011;40326;51.220;7.250;2022-10-16T15:02:02;2.78;;;0.70;;
54416;SDS011;40326;51.220;7.250;2022-10-16T15:04:42;0.68;;;0.47;;
54416;SDS011;40326;51.220;7.250;2022-10-16T15:07:07;1.75;;;1.20;;
54416;SDS011;40326;51.220;7.250;2022-10-16T15:09:33;4.95;;;2.58;;
54416;SDS011;40326;51.220;7.250;2022-10-16T15:11:58;1.90;;;0.70;;
54416;SDS011;40326;51.220;7.250;2022-10-16T15:14:23;2.40;;;0.60;;
54416;SDS011;40326;51.220;7.250;2022-10-16T15:16:48;1.60;;;0.52;;
54416;SDS011;40326;51.220;7.250;2022-10-16T15:19:14;1.92;;;0.63;;
54416;SDS011;40326;51.220;7.250;2022-10-16T15:21:39;0.80;;;0.63;;
54416;SDS011;40326;51.220;7.250;2022-10-16T15:24:05;2.50;;;0.73;;
54416;SDS011;40326;51.220;7.250;2022-10-16T15:26:36;3.60;;;0.90;;
54416;SDS011;40326;51.220;7.250;2022-10-16T15:29:01;0.88;;;0.60;;
54416;SDS011;40326;51.220;7.250;2022-10-16T15:31:26;1.45;;;0.70;;
54416;SDS011;40326;51.220;7.250;2022-10-16T15:33:52;2.17;;;0.70;;
54416;SDS011;40326;51.220;7.250;2022-10-16T15:36:24;2.45;;;0.60;;
54416;SDS011;40326;51.220;7.250;2022-10-16T15:38:53;2.47;;;0.80;;
54416;SDS011;40326;51.220;7.250;2022-10-16T15:41:19;1.15;;;0.68;;
54416;SDS011;40326;51.220;7.250;2022-10-16T15:43:46;1.77;;;0.80;;
54416;SDS011;40326;51.220;7.250;2022-10-16T15:46:13;1.75;;;0.82;;
54416;SDS011;40326;51.220;7.250;2022-10-16T15:48:40;3.17;;;0.90;;
54416;SDS011;40326;51.220;7.250;2022-10-16T15:51:05;1.60;;;0.70;;
54416;SDS011;40326;51.220;7.250;2022-10-16T15:53:32;2.47;;;0.80;;
54416;SDS011;40326;51.220;7.250;2022-10-16T15:56:01;2.80;;;0.88;;
54416;SDS011;40326;51.220;7.250;2022-10-16T15:58:28;1.15;;;0.70;;
54416;SDS011;40326;51.220;7.250;2022-10-16T16:00:56;2.00;;;0.80;;
54416;SDS011;40326;51.220;7.250;2022-10-16T16:03:25;1.38;;;0.77;;
54416;SDS011;40326;51.220;7.250;2022-10-16T16:05:51;1.63;;;0.85;;
54416;SDS011;40326;51.220;7.250;2022-10-16T16:08:16;1.73;;;0.77;;
54416;SDS011;40326;51.220;7.250;2022-10-16T16:10:41;3.92;;;1.10;;
54416;SDS011;40326;51.220;7.250;2022-10-16T16:13:07;4.05;;;1.00;;
54416;SDS011;40326;51.220;7.250;2022-10-16T16:15:32;2.40;;;0.98;;
54416;SDS011;40326;51.220;7.250;2022-10-16T16:17:57;1.42;;;0.80;;
54416;SDS011;40326;51.220;7.250;2022-10-16T16:20:23;2.33;;;0.75;;
54416;SDS011;40326;51.220;7.250;2022-10-16T16:22:48;2.90;;;0.90;;
54416;SDS011;40326;51.220;7.250;2022-10-16T16:25:14;1.13;;;0.75;;
54416;SDS011;40326;51.220;7.250;2022-10-16T16:27:39;1.42;;;0.80;;
54416;SDS011;40326;51.220;7.250;2022-10-16T16:30:09;5.30;;;0.73;;
54416;SDS011;40326;51.220;7.250;2022-10-16T16:32:35;1.30;;;0.80;;
54416;SDS011;40326;51.220;7.250;2022-10-16T16:35:01;1.10;;;0.73;;
54416;SDS011;40326;51.220;7.250;2022-10-16T16:37:28;2.13;;;0.88;;
54416;SDS011;40326;51.220;7.250;2022-10-16T16:39:53;3.90;;;1.00;;
54416;SDS011;40326;51.220;7.250;2022-10-16T16:42:20;3.75;;;1.00;;
54416;SDS011;40326;51.220;7.250;2022-10-16T16:44:47;3.97;;;1.20;;
54416;SDS011;40326;51.220;7.250;2022-10-16T16:47:13;2.42;;;1.10;;
54416;SDS011;40326;51.220;7.250;2022-10-16T16:49:38;2.38;;;1.25;;
54416;SDS011;40326;51.220;7.250;2022-10-16T16:52:05;1.85;;;0.90;;
54416;SDS011;40326;51.220;7.250;2022-10-16T16:54:30;3.10;;;1.10;;
54416;SDS011;40326;51.220;7.250;2022-10-16T16:56:56;3.13;;;1.15;;
54416;SDS011;40326;51.220;7.250;2022-10-16T16:59:21;2.53;;;0.93;;